createdAt,value
2022-08-05T00:00:17.302Z,10.01
2022-08-05T00:02:50.953Z,9.92
2022-08-05T00:06:01.922Z,9.75
2022-08-05T00:08:35.215Z,9.67
2022-08-05T00:11:00.426Z,9.83
2022-08-05T00:13:38.285Z,9.91
2022-08-05T00:16:12.203Z,9.85
2022-08-05T00:18:42.193Z,9.79
2022-08-05T00:21:09.659Z,9.81
2022-08-05T00:23:46.028Z,10.19
2022-08-05T00:26:20.814Z,10.52
2022-08-05T00:28:49.495Z,10.48
2022-08-05T00:31:16.751Z,9.92
2022-08-05T00:34:56.057Z,10.04
2022-08-05T00:37:12.424Z,9.84
2022-08-05T00:39:41.486Z,9.34
2022-08-05T00:42:11.548Z,9.63
2022-08-05T00:44:58.511Z,9.51
2022-08-05T00:47:26.615Z,9.62
2022-08-05T00:50:13.565Z,9.54
2022-08-05T00:52:40.377Z,9.82
2022-08-05T00:55:07.471Z,9.73
2022-08-05T00:57:55.303Z,9.49
2022-08-05T01:00:22.031Z,9.49
2022-08-05T01:02:53.125Z,9.54
2022-08-05T01:05:20.138Z,9.52
2022-08-05T01:08:40.188Z,9.31
2022-08-05T01:10:56.344Z,9.33
2022-08-05T01:13:58.403Z,9.79
2022-08-05T01:16:39.307Z,9.49
2022-08-05T01:19:18.311Z,9.39
2022-08-05T01:21:58.395Z,9.90
2022-08-05T01:24:58.035Z,10.36
2022-08-05T01:27:55.135Z,10.21
2022-08-05T01:30:34.216Z,9.76
2022-08-05T01:33:06.132Z,9.31
2022-08-05T01:35:51.920Z,9.19
2022-08-05T01:38:27.091Z,9.42
2022-08-05T01:40:56.280Z,9.32
2022-08-05T01:43:24.742Z,9.67
2022-08-05T01:45:56.721Z,9.93
2022-08-05T01:48:26.312Z,10.10
2022-08-05T01:50:55.584Z,9.89
2022-08-05T01:53:57.433Z,9.67
2022-08-05T01:56:11.723Z,9.76
2022-08-05T01:58:40.989Z,10.11
2022-08-05T02:01:24.659Z,10.12
2022-08-05T02:03:53.700Z,9.62
2022-08-05T02:06:37.808Z,9.47
2022-08-05T02:09:06.379Z,9.81
2022-08-05T02:11:42.288Z,10.16
2022-08-05T02:14:18.775Z,10.23
2022-08-05T02:16:52.842Z,10.27
2022-08-05T02:19:46.911Z,10.27
2022-08-05T02:22:27.386Z,10.10
2022-08-05T02:25:02.119Z,9.85
2022-08-05T02:27:59.289Z,9.76
2022-08-05T02:30:22.190Z,9.93
2022-08-05T02:32:51.900Z,10.00
2022-08-05T02:35:27.655Z,10.11
2022-08-05T02:37:55.803Z,10.28
2022-08-05T02:40:26.194Z,10.07
2022-08-05T02:42:55.345Z,10.16
2022-08-05T02:45:24.484Z,9.94
2022-08-05T02:48:06.337Z,9.97
2022-08-05T02:50:39.031Z,9.95
2022-08-05T02:53:12.046Z,10.00
2022-08-05T02:55:53.730Z,9.85
2022-08-05T02:58:23.192Z,9.31
2022-08-05T03:00:56.167Z,9.72
2022-08-05T03:03:23.419Z,9.93
2022-08-05T03:06:54.059Z,10.02
2022-08-05T03:08:42.338Z,9.82
2022-08-05T03:11:55.382Z,10.11
2022-08-05T03:14:13.295Z,10.29
2022-08-05T03:16:41.071Z,10.33
2022-08-05T03:19:16.884Z,10.13
2022-08-05T03:21:48.718Z,10.03
2022-08-05T03:24:29.419Z,9.93
2022-08-05T03:27:01.243Z,9.97
2022-08-05T03:29:45.392Z,10.10
2022-08-05T03:32:16.501Z,10.29
2022-08-05T03:34:50.697Z,10.16
2022-08-05T03:37:19.724Z,10.08
2022-08-05T03:39:59.219Z,10.03
2022-08-05T03:42:29.224Z,10.09
2022-08-05T03:44:58.882Z,10.09
2022-08-05T03:47:35.212Z,10.03
2022-08-05T03:50:02.554Z,10.13
2022-08-05T03:52:50.074Z,10.07
2022-08-05T03:56:05.885Z,10.29
2022-08-05T03:58:16.854Z,10.31
2022-08-05T04:00:46.463Z,10.22
2022-08-05T04:03:28.864Z,10.19
2022-08-05T04:05:57.645Z,10.14
2022-08-05T04:08:30.253Z,10.13
2022-08-05T04:11:04.796Z,10.02
2022-08-05T04:13:50.268Z,10.07
2022-08-05T04:16:24.223Z,9.95
2022-08-05T04:19:00.066Z,9.98
2022-08-05T04:22:08.318Z,10.12
2022-08-05T04:24:19.355Z,10.32
2022-08-05T04:26:50.251Z,10.10
2022-08-05T04:29:17.124Z,9.97
2022-08-05T04:31:43.943Z,10.10
2022-08-05T04:34:31.830Z,10.09
2022-08-05T04:37:00.116Z,9.63
2022-08-05T04:39:27.882Z,9.90
2022-08-05T04:41:55.446Z,9.88
2022-08-05T04:44:29.455Z,10.07
2022-08-05T04:47:09.628Z,9.91
2022-08-05T04:50:01.495Z,9.92
2022-08-05T04:52:28.261Z,9.67
2022-08-05T04:54:57.094Z,9.68
2022-08-05T04:57:29.271Z,9.69
2022-08-05T04:59:58.615Z,9.55
2022-08-05T05:02:41.291Z,9.56
2022-08-05T05:05:26.209Z,9.62
2022-08-05T05:08:01.794Z,9.50
2022-08-05T05:10:33.859Z,9.38
2022-08-05T05:13:03.767Z,9.27
2022-08-05T05:15:56.739Z,9.33
2022-08-05T05:18:28.694Z,9.32
2022-08-05T05:21:00.095Z,9.25
2022-08-05T05:23:27.240Z,9.22
2022-08-05T05:26:14.141Z,9.15
2022-08-05T05:28:44.741Z,9.25
2022-08-05T05:31:12.396Z,9.23
2022-08-05T05:33:58.748Z,9.28
2022-08-05T05:36:28.536Z,8.88
2022-08-05T05:38:57.309Z,9.05
2022-08-05T05:41:24.625Z,8.97
2022-08-05T05:43:58.493Z,8.85
2022-08-05T05:46:27.618Z,9.01
2022-08-05T05:48:54.460Z,8.88
2022-08-05T05:51:27.904Z,8.83
2022-08-05T05:53:59.495Z,9.03
2022-08-05T05:56:31.555Z,8.99
2022-08-05T05:59:03.444Z,8.86
2022-08-05T06:01:38.197Z,9.15
2022-08-05T06:04:13.180Z,9.17
2022-08-05T06:06:43.095Z,9.20
2022-08-05T06:09:17.300Z,9.33
2022-08-05T06:12:01.160Z,9.32
2022-08-05T06:14:34.628Z,9.19
2022-08-05T06:17:22.063Z,9.37
2022-08-05T06:19:56.567Z,9.48
2022-08-05T06:22:34.804Z,9.64
2022-08-05T06:25:59.251Z,9.66
2022-08-05T06:28:10.965Z,9.72
2022-08-05T06:30:39.257Z,9.87
2022-08-05T06:33:09.927Z,9.85
2022-08-05T06:36:07.137Z,9.49
2022-08-05T06:38:35.821Z,9.77
2022-08-05T06:41:05.062Z,10.17
2022-08-05T06:43:57.661Z,9.81
2022-08-05T06:46:19.328Z,9.91
2022-08-05T06:48:53.685Z,10.16
2022-08-05T06:51:30.217Z,10.40
2022-08-05T06:54:02.349Z,10.41
2022-08-05T06:56:30.416Z,10.31
2022-08-05T06:59:01.818Z,10.54
2022-08-05T07:01:32.588Z,10.56
2022-08-05T07:04:03.124Z,10.77
2022-08-05T07:06:30.483Z,10.76
2022-08-05T07:08:59.246Z,10.61
2022-08-05T07:11:28.728Z,10.85
2022-08-05T07:14:20.220Z,10.83
2022-08-05T07:18:01.399Z,10.75
2022-08-05T07:22:29.134Z,10.89
2022-08-05T07:25:22.444Z,11.11
2022-08-05T07:27:58.398Z,11.24
2022-08-05T07:30:34.481Z,11.20
2022-08-05T07:33:09.206Z,11.17
2022-08-05T07:35:56.817Z,11.43
2022-08-05T07:38:33.210Z,11.35
2022-08-05T07:42:06.799Z,11.51
2022-08-05T07:43:53.258Z,11.46
2022-08-05T07:46:25.319Z,11.60
2022-08-05T07:49:02.068Z,11.77
2022-08-05T07:51:37.215Z,11.79
2022-08-05T07:54:09.705Z,11.71
2022-08-05T07:57:00.412Z,11.60
2022-08-05T07:59:38.027Z,11.81
2022-08-05T08:02:15.916Z,11.96
2022-08-05T08:04:46.571Z,12.18
2022-08-05T08:07:14.046Z,12.28
2022-08-05T08:09:42.164Z,12.48
2022-08-05T08:12:19.943Z,12.46
2022-08-05T08:14:56.089Z,12.59
2022-08-05T08:17:23.702Z,12.60
2022-08-05T08:20:21.751Z,12.67
2022-08-05T08:22:41.617Z,12.75
2022-08-05T08:25:15.768Z,12.84
2022-08-05T08:27:47.412Z,12.85
2022-08-05T08:30:29.840Z,12.80
2022-08-05T08:33:04.686Z,12.85
2022-08-05T08:35:41.027Z,12.94
2022-08-05T08:38:11.850Z,13.12
2022-08-05T08:40:47.788Z,13.21
2022-08-05T08:44:56.398Z,13.31
2022-08-05T08:46:06.729Z,13.45
2022-08-05T08:48:59.374Z,13.45
2022-08-05T08:52:03.820Z,13.58
2022-08-05T08:54:13.755Z,13.63
2022-08-05T08:56:47.738Z,13.57
2022-08-05T08:59:20.779Z,13.94
2022-08-05T09:01:57.350Z,14.02
2022-08-05T09:04:30.327Z,14.21
2022-08-05T09:06:58.639Z,14.32
2022-08-05T09:09:34.845Z,14.25
2022-08-05T09:12:20.039Z,14.53
2022-08-05T09:14:59.377Z,14.42
2022-08-05T09:17:42.256Z,14.28
2022-08-05T09:20:11.598Z,14.41
2022-08-05T09:23:18.734Z,14.35
2022-08-05T09:26:02.843Z,14.51
2022-08-05T09:28:33.418Z,14.28
2022-08-05T09:31:23.542Z,14.31
2022-08-05T09:34:07.808Z,14.44
2022-08-05T09:36:54.115Z,14.33
2022-08-05T09:39:27.778Z,14.62
2022-08-05T09:42:13.625Z,14.64
2022-08-05T09:44:56.401Z,14.74
2022-08-05T09:47:26.265Z,14.77
2022-08-05T09:50:02.536Z,15.18
2022-08-05T09:52:32.075Z,15.23
2022-08-05T09:55:06.454Z,15.17
2022-08-05T09:57:48.706Z,15.18
2022-08-05T10:00:21.252Z,15.06
2022-08-05T10:02:58.469Z,15.02
2022-08-05T10:05:27.998Z,15.08
2022-08-05T10:08:34.917Z,15.24
2022-08-05T10:10:44.181Z,15.17
2022-08-05T10:13:11.533Z,15.61
2022-08-05T10:15:41.827Z,15.63
2022-08-05T10:18:12.398Z,15.58
2022-08-05T10:20:44.101Z,15.97
2022-08-05T10:23:34.617Z,15.81
2022-08-05T10:26:08.089Z,15.66
2022-08-05T10:28:44.056Z,15.73
2022-08-05T10:32:47.307Z,15.68
2022-08-05T10:34:01.305Z,15.73
2022-08-05T10:36:28.507Z,15.72
2022-08-05T10:39:01.260Z,16.16
2022-08-05T10:41:47.374Z,15.87
2022-08-05T10:44:17.934Z,16.12
2022-08-05T10:46:54.084Z,16.11
2022-08-05T10:49:27.188Z,15.98
2022-08-05T10:52:02.725Z,16.19
2022-08-05T10:55:02.350Z,16.55
2022-08-05T10:57:31.916Z,16.61
2022-08-05T11:00:22.864Z,16.41
2022-08-05T11:03:24.452Z,16.14
2022-08-05T11:06:08.402Z,15.75
2022-08-05T11:09:24.417Z,15.94
2022-08-05T11:12:07.289Z,15.74
2022-08-05T11:15:01.040Z,15.62
2022-08-05T11:17:59.624Z,15.82
2022-08-05T11:20:44.016Z,15.60
2022-08-05T11:23:33.626Z,16.02
2022-08-05T11:26:11.642Z,16.28
2022-08-05T11:28:43.243Z,16.32
2022-08-05T11:31:10.330Z,16.78
2022-08-05T11:33:51.748Z,16.89
2022-08-05T11:36:42.821Z,16.70
2022-08-05T11:39:12.147Z,16.26
2022-08-05T11:42:01.508Z,16.43
2022-08-05T11:44:53.274Z,16.40
2022-08-05T11:47:48.235Z,16.33
2022-08-05T11:50:10.371Z,16.47
2022-08-05T11:52:40.912Z,16.60
2022-08-05T11:55:11.470Z,16.76
2022-08-05T11:58:09.388Z,16.70
2022-08-05T12:00:38.372Z,16.28
2022-08-05T12:03:16.738Z,16.29
2022-08-05T12:06:03.142Z,16.02
2022-08-05T12:08:33.369Z,16.11
2022-08-05T12:11:05.435Z,16.30
2022-08-05T12:13:49.631Z,16.50
2022-08-05T12:16:20.368Z,16.46
2022-08-05T12:18:55.142Z,16.03
2022-08-05T12:21:30.052Z,16.11
2022-08-05T12:24:10.884Z,16.16
2022-08-05T12:26:44.236Z,16.72
2022-08-05T12:29:22.736Z,17.29
2022-08-05T12:32:02.220Z,17.71
2022-08-05T12:34:35.773Z,17.53
2022-08-05T12:37:10.806Z,17.40
2022-08-05T12:39:45.141Z,17.20
2022-08-05T12:42:19.685Z,17.05
2022-08-05T12:44:47.602Z,17.13
2022-08-05T12:47:31.924Z,16.93
2022-08-05T12:50:02.086Z,16.70
2022-08-05T12:52:39.487Z,16.56
2022-08-05T12:55:25.514Z,16.90
2022-08-05T12:58:49.054Z,17.46
2022-08-05T13:02:00.872Z,17.50
2022-08-05T13:03:39.096Z,17.25
2022-08-05T13:06:11.650Z,18.16
2022-08-05T13:08:38.904Z,18.90
2022-08-05T13:11:07.915Z,18.50
2022-08-05T13:14:05.103Z,18.89
2022-08-05T13:16:27.987Z,19.14
2022-08-05T13:18:57.968Z,19.06
2022-08-05T13:21:28.135Z,18.27
2022-08-05T13:24:04.936Z,17.27
2022-08-05T13:26:31.742Z,16.91
2022-08-05T13:28:59.188Z,16.43
2022-08-05T13:32:02.933Z,16.48
2022-08-05T13:34:21.944Z,16.49
2022-08-05T13:36:53.219Z,16.45
2022-08-05T13:40:14.631Z,16.56
2022-08-05T13:42:07.690Z,16.32
2022-08-05T13:44:45.428Z,16.65
2022-08-05T13:47:34.657Z,16.42
2022-08-05T13:50:04.252Z,16.76
2022-08-05T13:52:32.294Z,16.45
2022-08-05T13:55:07.932Z,16.51
2022-08-05T13:57:50.702Z,16.27
2022-08-05T14:00:30.646Z,16.74
2022-08-05T14:02:57.782Z,16.09
2022-08-05T14:05:47.929Z,16.01
2022-08-05T14:08:21.352Z,15.68
2022-08-05T14:11:03.362Z,16.02
2022-08-05T14:13:42.418Z,16.36
2022-08-05T14:16:11.473Z,16.26
2022-08-05T14:18:38.699Z,16.60
2022-08-05T14:22:08.794Z,16.81
2022-08-05T14:23:53.700Z,16.69
2022-08-05T14:26:35.673Z,17.35
2022-08-05T14:29:06.476Z,16.87
2022-08-05T14:32:03.026Z,17.34
2022-08-05T14:34:35.135Z,18.11
2022-08-05T14:37:04.497Z,19.28
2022-08-05T14:39:49.474Z,18.83
2022-08-05T14:42:21.388Z,19.64
2022-08-05T14:44:56.561Z,20.72
2022-08-05T14:48:04.006Z,21.11
2022-08-05T14:50:17.849Z,22.12
2022-08-05T14:52:52.954Z,20.26
2022-08-05T14:55:20.282Z,20.62
2022-08-05T14:57:54.201Z,20.93
2022-08-05T15:00:27.864Z,20.10
2022-08-05T15:02:55.617Z,19.07
2022-08-05T15:05:29.828Z,19.97
2022-08-05T15:08:08.546Z,19.30
2022-08-05T15:10:41.554Z,18.44
2022-08-05T15:13:10.079Z,19.47
2022-08-05T15:15:54.314Z,18.97
2022-08-05T15:18:23.691Z,18.12
2022-08-05T15:20:50.943Z,17.45
2022-08-05T15:23:18.293Z,16.56
2022-08-05T15:25:51.996Z,16.63
2022-08-05T15:28:27.017Z,16.59
2022-08-05T15:30:55.113Z,16.49
2022-08-05T15:34:05.014Z,17.03
2022-08-05T15:36:17.357Z,16.65
2022-08-05T15:40:41.369Z,17.10
2022-08-05T15:41:55.939Z,17.57
2022-08-05T15:44:24.153Z,17.87
2022-08-05T15:46:52.667Z,17.86
2022-08-05T15:49:27.441Z,17.70
2022-08-05T15:52:16.909Z,18.07
2022-08-05T15:54:53.685Z,19.15
2022-08-05T15:57:23.612Z,20.75
2022-08-05T15:59:54.034Z,20.28
2022-08-05T16:02:25.505Z,21.04
2022-08-05T16:04:55.371Z,20.81
2022-08-05T16:07:22.898Z,21.36
2022-08-05T16:09:50.183Z,20.86
2022-08-05T16:12:17.594Z,20.38
2022-08-05T16:14:46.934Z,20.15
2022-08-05T16:17:13.833Z,19.25
2022-08-05T16:20:03.640Z,18.98
2022-08-05T16:22:34.025Z,19.00
2022-08-05T16:25:05.441Z,19.65
2022-08-05T16:27:59.740Z,19.49
2022-08-05T16:30:26.141Z,19.15
2022-08-05T16:32:54.103Z,18.80
2022-08-05T16:35:27.877Z,18.14
2022-08-05T16:38:15.304Z,17.03
2022-08-05T16:40:51.894Z,17.89
2022-08-05T16:43:24.134Z,18.01
2022-08-05T16:46:04.636Z,18.54
2022-08-05T16:48:35.955Z,19.80
2022-08-05T16:51:08.654Z,19.51
2022-08-05T16:54:02.865Z,18.47
2022-08-05T16:56:24.154Z,19.17
2022-08-05T16:58:51.390Z,18.87
2022-08-05T17:01:19.144Z,17.87
2022-08-05T17:03:46.539Z,18.26
2022-08-05T17:06:16.627Z,18.12
2022-08-05T17:08:52.763Z,17.90
2022-08-05T17:11:25.515Z,19.92
2022-08-05T17:14:00.550Z,19.83
2022-08-05T17:16:37.987Z,18.59
2022-08-05T17:19:07.517Z,18.45
2022-08-05T17:21:37.316Z,18.10
2022-08-05T17:24:14.395Z,17.52
2022-08-05T17:26:53.706Z,17.09
2022-08-05T17:29:39.804Z,17.25
2022-08-05T17:32:26.123Z,17.06
2022-08-05T17:34:53.082Z,16.75
2022-08-05T17:37:40.648Z,16.86
2022-08-05T17:40:10.148Z,16.73
2022-08-05T17:42:41.436Z,16.60
2022-08-05T17:45:20.694Z,16.52
2022-08-05T17:47:54.891Z,16.83
2022-08-05T17:50:29.517Z,17.16
2022-08-05T17:52:59.586Z,16.77
2022-08-05T17:55:34.713Z,16.63
2022-08-05T17:58:10.837Z,17.29
2022-08-05T18:00:44.971Z,16.45
2022-08-05T18:03:27.988Z,16.86
2022-08-05T18:06:04.901Z,16.84
2022-08-05T18:08:33.725Z,17.16
2022-08-05T18:11:01.165Z,17.57
2022-08-05T18:13:36.854Z,17.13
2022-08-05T18:16:13.705Z,16.88
2022-08-05T18:18:41.249Z,16.89
2022-08-05T18:21:13.386Z,16.72
2022-08-05T18:23:47.337Z,17.08
2022-08-05T18:26:14.698Z,17.16
2022-08-05T18:28:46.359Z,16.65
2022-08-05T18:31:13.432Z,17.31
2022-08-05T18:33:47.113Z,16.88
2022-08-05T18:36:17.366Z,16.72
2022-08-05T18:38:46.226Z,16.52
2022-08-05T18:41:55.880Z,16.23
2022-08-05T18:44:06.276Z,16.13
2022-08-05T18:46:34.606Z,16.01
2022-08-05T18:49:21.283Z,16.18
2022-08-05T18:52:08.835Z,16.02
2022-08-05T18:54:36.022Z,16.17
2022-08-05T18:57:09.658Z,16.34
2022-08-05T19:00:01.452Z,16.07
2022-08-05T19:02:29.605Z,15.61
2022-08-05T19:05:02.981Z,16.40
2022-08-05T19:07:50.127Z,15.79
2022-08-05T19:10:28.162Z,15.70
2022-08-05T19:12:58.765Z,15.04
2022-08-05T19:15:59.815Z,15.35
2022-08-05T19:18:21.886Z,15.36
2022-08-05T19:20:54.011Z,15.02
2022-08-05T19:24:03.604Z,14.50
2022-08-05T19:26:09.304Z,14.25
2022-08-05T19:28:42.070Z,14.50
2022-08-05T19:31:09.548Z,14.70
2022-08-05T19:33:40.728Z,14.53
2022-08-05T19:36:16.993Z,14.49
2022-08-05T19:38:45.539Z,14.47
2022-08-05T19:41:12.775Z,14.33
2022-08-05T19:44:06.283Z,14.15
2022-08-05T19:46:30.268Z,14.10
2022-08-05T19:49:01.133Z,14.01
2022-08-05T19:52:08.536Z,14.15
2022-08-05T19:54:25.474Z,14.42
2022-08-05T19:56:58.830Z,14.02
2022-08-05T19:59:54.000Z,14.26
2022-08-05T20:02:14.883Z,14.55
2022-08-05T20:04:45.839Z,14.68
2022-08-05T20:07:14.159Z,14.30
2022-08-05T20:09:55.000Z,14.05
2022-08-05T20:12:25.344Z,14.38
2022-08-05T20:14:53.245Z,14.20
2022-08-05T20:17:23.533Z,14.51
2022-08-05T20:19:56.743Z,14.44
2022-08-05T20:22:26.790Z,14.48
2022-08-05T20:24:55.489Z,14.29
2022-08-05T20:27:26.939Z,14.31
2022-08-05T20:29:58.959Z,14.57
2022-08-05T20:32:27.146Z,14.73
2022-08-05T20:34:54.866Z,14.53
2022-08-05T20:38:04.732Z,14.89
2022-08-05T20:40:10.013Z,14.55
2022-08-05T20:42:36.933Z,14.69
2022-08-05T20:45:05.249Z,14.38
2022-08-05T20:47:32.853Z,14.04
2022-08-05T20:50:02.266Z,14.10
2022-08-05T20:52:30.017Z,14.50
2022-08-05T20:55:15.935Z,14.58
2022-08-05T20:57:45.097Z,14.15
2022-08-05T21:00:40.709Z,14.06
2022-08-05T21:03:06.360Z,14.43
2022-08-05T21:05:47.665Z,14.45
2022-08-05T21:08:28.106Z,14.12
2022-08-05T21:11:11.629Z,13.96
2022-08-05T21:13:55.758Z,14.09
2022-08-05T21:16:29.938Z,13.95
2022-08-05T21:19:00.332Z,13.91
2022-08-05T21:21:39.231Z,14.02
2022-08-05T21:24:13.134Z,14.02
2022-08-05T21:26:41.391Z,14.14
2022-08-05T21:29:12.564Z,14.02
2022-08-05T21:31:43.669Z,13.70
2022-08-05T21:34:11.364Z,13.79
2022-08-05T21:36:39.239Z,14.01
2022-08-05T21:39:10.151Z,14.28
2022-08-05T21:41:41.703Z,13.95
2022-08-05T21:44:19.329Z,13.91
2022-08-05T21:46:54.030Z,14.10
2022-08-05T21:49:48.364Z,13.76
2022-08-05T21:52:22.458Z,13.61
2022-08-05T21:54:57.084Z,13.58
2022-08-05T21:57:32.534Z,13.60
2022-08-05T22:00:05.969Z,13.64
2022-08-05T22:02:42.878Z,13.61
2022-08-05T22:05:11.571Z,13.66
2022-08-05T22:07:54.274Z,13.67
2022-08-05T22:14:18.277Z,13.40
2022-08-05T22:16:39.623Z,13.40
2022-08-05T22:19:03.097Z,13.44
2022-08-05T22:21:42.167Z,13.63
2022-08-05T22:24:39.729Z,13.79
2022-08-05T22:28:09.781Z,13.59
2022-08-05T22:30:15.121Z,13.49
2022-08-05T22:32:44.226Z,13.49
2022-08-05T22:35:13.347Z,13.43
2022-08-05T22:37:58.984Z,13.13
2022-08-05T22:40:26.817Z,13.31
2022-08-05T22:42:58.139Z,13.13
2022-08-05T22:45:26.510Z,12.98
2022-08-05T22:47:57.250Z,12.66
2022-08-05T22:50:27.702Z,12.92
2022-08-05T22:52:55.107Z,12.66
2022-08-05T22:55:23.661Z,12.36
2022-08-05T22:57:51.828Z,12.62
2022-08-05T23:00:21.515Z,12.71
2022-08-05T23:02:49.830Z,12.63
2022-08-05T23:05:17.616Z,12.57
2022-08-05T23:07:49.581Z,12.28
2022-08-05T23:10:20.059Z,12.25
2022-08-05T23:12:51.286Z,12.15
2022-08-05T23:15:22.671Z,12.08
2022-08-05T23:18:01.819Z,12.00
2022-08-05T23:20:31.477Z,11.94
2022-08-05T23:22:59.298Z,11.99
2022-08-05T23:25:50.923Z,12.02
2022-08-05T23:28:15.876Z,12.17
2022-08-05T23:30:53.583Z,12.06
2022-08-05T23:33:39.314Z,12.14
2022-08-05T23:36:10.557Z,12.15
2022-08-05T23:38:38.180Z,12.08
2022-08-05T23:41:05.149Z,12.10
2022-08-05T23:43:37.323Z,12.01
2022-08-05T23:46:21.982Z,11.95
2022-08-05T23:49:01.076Z,11.95
2022-08-05T23:51:57.088Z,11.76
2022-08-05T23:54:29.971Z,11.74
2022-08-05T23:57:03.728Z,11.66
